Time;durP1;ratioP1;P1;durP2;ratioP2;P2;SDS_P1;SDS_P2;PMS_P1;PMS_P2;Temp;Humidity;BMP_temperature;BMP_pressure;BME280_temperature;BME280_humidity;BME280_pressure;Samples;Min_cycle;Max_cycle;Signal;HPM_P1;HPM_P2
2023/11/14 00:01:04;;;;;;;;;;;;;;;9.02;89.91;99365.59;4075143;29;20021;-67
2023/11/14 00:03:06;;;;;;;;;;;;;;;9.02;89.54;99371.78;4075749;29;20029;-67
2023/11/14 00:05:08;;;;;;;;;;;;;;;9.02;89.62;99377.19;4066064;29;20022;-66
2023/11/14 00:07:10;;;;;;;;;;;;;;;9.03;89.27;99383.44;4076450;29;20006;-66
2023/11/14 00:09:13;;;;;;;;;;;;;;;9.04;89.42;99384.25;4076582;29;20025;-67
2023/11/14 00:11:15;;;;;;;;;;;;;;;9.06;89.50;99387.56;4076451;29;20017;-66
2023/11/14 00:13:19;;;;;;;;;;;;;;;9.05;89.48;99384.03;4076074;29;20404;-68
2023/11/14 00:15:21;;;;;;;;;;;;;;;9.05;89.42;99377.84;4076329;29;20180;-68
2023/11/14 00:17:22;;;;;;;;;;;;;;;9.05;89.35;99381.34;4076649;29;20010;-68
2023/11/14 00:19:24;;;;;;;;;;;;;;;9.05;89.25;99375.97;4076818;29;19938;-68
2023/11/14 00:21:26;;;;;;;;;;;;;;;9.09;89.31;99379.06;4076665;29;20017;-68
2023/11/14 00:23:28;;;;;;;;;;;;;;;9.08;89.32;99386.34;4076468;29;20413;-68
2023/11/14 00:25:30;;;;;;;;;;;;;;;9.08;89.10;99386.34;4076287;29;20860;-68
2023/11/14 00:27:32;;;;;;;;;;;;;;;9.07;89.22;99384.66;4049221;29;20031;-68
2023/11/14 00:29:36;;;;;;;;;;;;;;;9.06;88.96;99382.16;4075816;29;20017;-68
2023/11/14 00:31:38;;;;;;;;;;;;;;;9.07;88.75;99398.13;4074079;29;20014;-68
2023/11/14 00:33:40;;;;;;;;;;;;;;;9.09;89.14;99395.25;4075725;29;20022;-68
2023/11/14 00:35:43;;;;;;;;;;;;;;;9.08;89.12;99399.81;4065589;29;19927;-68
2023/11/14 00:37:45;;;;;;;;;;;;;;;9.09;89.00;99403.31;4065745;29;20398;-68
2023/11/14 00:39:47;;;;;;;;;;;;;;;9.11;88.84;99414.75;4065080;29;19931;-68
2023/11/14 00:41:53;;;;;;;;;;;;;;;9.12;88.91;99411.00;4058730;29;19977;-68
2023/11/14 00:43:55;;;;;;;;;;;;;;;9.13;88.84;99412.66;4076266;29;20433;-68
2023/11/14 00:45:58;;;;;;;;;;;;;;;9.14;89.17;99414.34;4076035;29;20002;-68
2023/11/14 00:48:01;;;;;;;;;;;;;;;9.14;89.08;99408.97;4076128;29;20042;-68
2023/11/14 00:50:03;;;;;;;;;;;;;;;9.13;89.29;99410.78;4065144;29;20026;-68
2023/11/14 00:52:06;;;;;;;;;;;;;;;9.13;89.13;99410.78;4075688;29;20022;-68
2023/11/14 00:54:08;;;;;;;;;;;;;;;9.14;89.14;99417.03;4075886;29;20018;-68
2023/11/14 00:56:10;;;;;;;;;;;;;;;9.14;88.74;99409.78;4065690;29;20329;-68
2023/11/14 00:58:13;;;;;;;;;;;;;;;9.14;89.05;99412.47;4058302;29;20034;-68
2023/11/14 01:00:15;;;;;;;;;;;;;;;9.14;89.17;99417.88;4059503;29;20026;-68
2023/11/14 01:02:21;;;;;;;;;;;;;;;9.15;89.04;99416.00;4075753;29;19965;-68
2023/11/14 01:04:22;;;;;;;;;;;;;;;9.14;88.78;99412.47;4076178;29;19973;-68
2023/11/14 01:06:25;;;;;;;;;;;;;;;9.14;88.88;99406.25;4065315;29;19953;-68
2023/11/14 01:08:27;;;;;;;;;;;;;;;9.14;88.84;99417.03;4065018;29;20010;-68
2023/11/14 01:10:29;;;;;;;;;;;;;;;9.15;88.98;99416.00;4065588;29;20072;-68
2023/11/14 01:12:32;;;;;;;;;;;;;;;9.14;88.88;99417.03;4065965;29;19995;-68
2023/11/14 01:14:34;;;;;;;;;;;;;;;9.16;89.08;99412.28;4059313;29;20025;-68
2023/11/14 01:16:37;;;;;;;;;;;;;;;9.16;88.86;99423.03;4059160;29;20465;-68
2023/11/14 01:18:41;;;;;;;;;;;;;;;9.16;88.71;99420.34;4075820;29;20014;-68
2023/11/14 01:20:43;;;;;;;;;;;;;;;9.16;89.05;99421.19;4075023;29;20021;-68
2023/11/14 01:22:44;;;;;;;;;;;;;;;9.16;88.84;99414.97;4065137;29;19981;-68
2023/11/14 01:24:46;;;;;;;;;;;;;;;9.17;88.96;99416.63;4076833;29;20050;-68
2023/11/14 01:26:47;;;;;;;;;;;;;;;9.17;88.57;99413.94;4070454;29;20397;-68
2023/11/14 01:28:49;;;;;;;;;;;;;;;9.17;88.83;99413.94;4082091;29;19962;-68
2023/11/14 01:30:51;;;;;;;;;;;;;;;9.18;88.64;99418.28;4085851;29;19966;-68
2023/11/14 01:32:53;;;;;;;;;;;;;;;9.17;88.69;99416.63;4078372;29;20031;-68
2023/11/14 01:34:57;;;;;;;;;;;;;;;9.15;88.69;99413.28;4080351;29;19973;-68
2023/11/14 01:36:59;;;;;;;;;;;;;;;9.16;88.70;99414.97;4070992;29;19994;-68
2023/11/14 01:39:01;;;;;;;;;;;;;;;9.15;88.49;99410.59;4071351;29;20002;-68
2023/11/14 01:41:02;;;;;;;;;;;;;;;9.16;88.44;99412.28;4062542;29;19999;-68
2023/11/14 01:43:06;;;;;;;;;;;;;;;9.14;88.57;99411.66;4079458;29;20585;-68
2023/11/14 01:45:09;;;;;;;;;;;;;;;9.14;88.31;99407.09;4070429;29;19954;-68
2023/11/14 01:47:11;;;;;;;;;;;;;;;9.13;88.25;99413.50;4080097;29;20049;-68
2023/11/14 01:49:13;;;;;;;;;;;;;;;9.13;88.50;99402.72;4080017;29;20022;-68
2023/11/14 01:51:17;;;;;;;;;;;;;;;9.12;88.64;99403.78;4079589;29;20026;-68
2023/11/14 01:53:20;;;;;;;;;;;;;;;9.12;88.49;99400.22;4080254;29;20412;-68
2023/11/14 01:55:25;;;;;;;;;;;;;;;9.10;88.35;99407.69;4080521;29;20013;-68
2023/11/14 01:57:26;;;;;;;;;;;;;;;9.06;88.39;99401.88;4069765;29;20437;-68
2023/11/14 01:59:28;;;;;;;;;;;;;;;9.07;88.69;99405.38;4070353;29;19962;-67
2023/11/14 02:01:31;;;;;;;;;;;;;;;9.00;88.78;99408.88;4069964;29;20010;-68
2023/11/14 02:03:33;;;;;;;;;;;;;;;9.06;88.77;99425.25;4070185;29;20018;-68
2023/11/14 02:05:34;;;;;;;;;;;;;;;9.06;88.84;99419.88;4070764;29;20109;-68
2023/11/14 02:07:38;;;;;;;;;;;;;;;9.06;88.74;99419.88;4062912;29;20021;-68
2023/11/14 02:09:40;;;;;;;;;;;;;;;9.04;88.75;99417.38;4080981;29;20501;-68
2023/11/14 02:11:43;;;;;;;;;;;;;;;9.03;88.86;99426.50;4080283;29;20361;-68
2023/11/14 02:13:45;;;;;;;;;;;;;;;9.05;88.55;99424.44;4080470;29;20015;-68
2023/11/14 02:15:47;;;;;;;;;;;;;;;9.02;88.49;99422.97;4063712;29;20026;-68
2023/11/14 02:17:49;;;;;;;;;;;;;;;9.03;88.76;99423.81;4080782;29;20387;-69
2023/11/14 02:19:51;;;;;;;;;;;;;;;9.01;88.68;99423.16;4047153;29;20011;-68
2023/11/14 02:21:53;;;;;;;;;;;;;;;9.00;88.78;99427.72;4080748;29;20025;-68
2023/11/14 02:23:55;;;;;;;;;;;;;;;8.99;88.65;99423.38;4085956;29;20017;-68
2023/11/14 02:25:59;;;;;;;;;;;;;;;8.99;88.67;99426.06;4078713;29;19994;-68
2023/11/14 02:28:01;;;;;;;;;;;;;;;8.97;88.58;99433.50;4079946;29;20010;-68
2023/11/14 02:30:05;;;;;;;;;;;;;;;8.96;88.71;99439.91;4081027;29;19999;-68
2023/11/14 02:32:06;;;;;;;;;;;;;;;8.95;89.38;99430.19;4063725;29;20046;-68
2023/11/14 02:34:10;;;;;;;;;;;;;;;8.95;89.68;99434.72;4085545;29;20386;-68
2023/11/14 02:36:12;;;;;;;;;;;;;;;8.92;89.81;99435.13;4086009;29;20014;-68
2023/11/14 02:38:14;;;;;;;;;;;;;;;8.92;89.58;99435.13;4078220;29;20770;-68
2023/11/14 02:40:16;;;;;;;;;;;;;;;8.91;89.59;99418.16;4078645;29;20382;-68
2023/11/14 02:42:19;;;;;;;;;;;;;;;8.91;89.55;99433.47;4078691;29;19974;-68
2023/11/14 02:44:20;;;;;;;;;;;;;;;8.91;89.27;99437.00;4078253;29;20013;-68
2023/11/14 02:46:22;;;;;;;;;;;;;;;8.91;89.21;99434.31;4068537;29;19990;-68
2023/11/14 02:48:24;;;;;;;;;;;;;;;8.90;89.55;99421.03;4060517;29;20022;-68
2023/11/14 02:50:30;;;;;;;;;;;;;;;8.89;89.35;99425.59;4077973;29;20021;-68
2023/11/14 02:52:35;;;;;;;;;;;;;;;8.89;89.17;99420.22;4067836;29;20013;-68
2023/11/14 02:54:37;;;;;;;;;;;;;;;8.90;89.15;99429.13;4067202;29;20022;-68
2023/11/14 02:56:39;;;;;;;;;;;;;;;8.94;88.61;99427.69;4078255;29;20017;-68
2023/11/14 02:58:42;;;;;;;;;;;;;;;8.93;88.68;99426.03;4078437;29;20556;-68
2023/11/14 03:00:46;;;;;;;;;;;;;;;8.93;88.70;99428.72;4078452;29;20026;-68
2023/11/14 03:02:48;;;;;;;;;;;;;;;8.94;88.38;99419.63;4067109;29;19964;-68
2023/11/14 03:04:51;;;;;;;;;;;;;;;8.93;88.31;99426.03;4068536;29;19971;-69
2023/11/14 03:06:53;;;;;;;;;;;;;;;8.92;88.35;99430.59;4068357;29;20382;-68
2023/11/14 03:08:55;;;;;;;;;;;;;;;8.94;88.23;99431.22;4077367;29;20034;-68
2023/11/14 03:10:57;;;;;;;;;;;;;;;8.96;88.16;99445.31;4078344;29;20466;-68
2023/11/14 03:12:58;;;;;;;;;;;;;;;8.99;88.02;99452.16;4079273;29;20061;-68
2023/11/14 03:15:02;;;;;;;;;;;;;;;9.00;87.91;99443.88;4060588;29;19994;-68
2023/11/14 03:17:05;;;;;;;;;;;;;;;9.01;87.83;99448.25;4078166;29;20034;-68
2023/11/14 03:19:06;;;;;;;;;;;;;;;9.01;87.92;99439.31;4067579;29;20615;-68
2023/11/14 03:21:09;;;;;;;;;;;;;;;9.00;87.59;99437.69;4077307;29;20030;-68
2023/11/14 03:23:11;;;;;;;;;;;;;;;9.00;87.57;99440.38;4077864;29;20472;-68
2023/11/14 03:25:13;;;;;;;;;;;;;;;9.00;87.64;99433.13;4077896;29;19978;-68
2023/11/14 03:27:16;;;;;;;;;;;;;;;9.01;87.42;99425.84;4078131;29;20013;-68
2023/11/14 03:29:18;;;;;;;;;;;;;;;9.02;87.49;99433.75;4067926;29;20025;-68
2023/11/14 03:31:22;;;;;;;;;;;;;;;9.04;87.26;99427.34;4067314;29;20062;-68
2023/11/14 03:33:24;;;;;;;;;;;;;;;9.04;87.36;99443.50;4060234;29;19973;-68
2023/11/14 03:35:26;;;;;;;;;;;;;;;9.06;87.49;99446.81;4077870;29;20021;-68
2023/11/14 03:37:28;;;;;;;;;;;;;;;9.05;87.32;99448.69;4076765;29;20014;-68
2023/11/14 03:39:33;;;;;;;;;;;;;;;9.07;87.08;99460.06;4077486;29;20021;-68
2023/11/14 03:41:35;;;;;;;;;;;;;;;9.08;87.22;99448.28;4077019;29;19962;-68
2023/11/14 03:43:37;;;;;;;;;;;;;;;9.11;86.90;99452.44;4077419;29;19977;-68
2023/11/14 03:45:39;;;;;;;;;;;;;;;9.12;87.19;99457.63;4077206;29;19973;-68
2023/11/14 03:47:43;;;;;;;;;;;;;;;9.11;87.23;99455.97;4076529;29;20010;-68
2023/11/14 03:49:45;;;;;;;;;;;;;;;9.13;87.27;99450.38;4076760;29;20346;-68
2023/11/14 03:51:47;;;;;;;;;;;;;;;9.14;87.18;99444.78;4077198;29;20029;-68
2023/11/14 03:53:49;;;;;;;;;;;;;;;9.16;87.18;99447.28;4059111;29;20026;-68
2023/11/14 03:55:51;;;;;;;;;;;;;;;9.16;87.29;99439.22;4059867;29;20022;-68
2023/11/14 03:57:53;;;;;;;;;;;;;;;9.16;87.21;99436.50;4066891;29;20033;-68
2023/11/14 03:59:55;;;;;;;;;;;;;;;9.17;87.38;99428.22;4077244;29;19967;-68
2023/11/14 04:01:57;;;;;;;;;;;;;;;9.17;87.52;99436.31;4076752;29;20027;-68
2023/11/14 04:04:01;;;;;;;;;;;;;;;9.16;87.59;99440.03;4066741;29;20006;-68
2023/11/14 04:06:09;;;;;;;;;;;;;;;9.17;87.20;99433.63;4077082;29;20342;-68
2023/11/14 04:08:11;;;;;;;;;;;;;;;9.17;87.57;99428.22;4077869;29;19985;-68
2023/11/14 04:10:13;;;;;;;;;;;;;;;9.18;87.39;99438.00;4082309;29;20397;-68
2023/11/14 04:12:15;;;;;;;;;;;;;;;9.20;87.59;99435.09;4076454;29;19961;-68
2023/11/14 04:14:17;;;;;;;;;;;;;;;9.20;87.23;99435.91;4059924;29;19930;-68
2023/11/14 04:16:19;;;;;;;;;;;;;;;9.19;87.42;99434.25;4066603;29;20009;-68
2023/11/14 04:18:21;;;;;;;;;;;;;;;9.19;87.54;99441.50;4077624;29;20362;-68
2023/11/14 04:20:25;;;;;;;;;;;;;;;9.22;87.17;99434.91;4076423;29;20441;-68
2023/11/14 04:22:27;;;;;;;;;;;;;;;9.24;87.43;99432.81;4059789;29;20347;-68
2023/11/14 04:24:31;;;;;;;;;;;;;;;9.19;87.53;99430.72;4077249;29;20428;-68
2023/11/14 04:26:34;;;;;;;;;;;;;;;9.24;87.29;99430.94;4066577;29;19973;-68
2023/11/14 04:28:36;;;;;;;;;;;;;;;9.26;87.45;99442.34;4075959;29;19994;-68
2023/11/14 04:30:38;;;;;;;;;;;;;;;9.26;87.51;99428.88;4075659;29;20026;-68
2023/11/14 04:32:40;;;;;;;;;;;;;;;9.27;87.60;99437.81;4074685;29;20025;-68
2023/11/14 04:34:44;;;;;;;;;;;;;;;9.29;87.37;99436.56;4074848;29;20449;-68
2023/11/14 04:36:48;;;;;;;;;;;;;;;9.30;87.12;99426.63;4065367;29;20112;-68
2023/11/14 04:38:49;;;;;;;;;;;;;;;9.32;87.42;99435.34;4058100;29;20027;-68
2023/11/14 04:40:51;;;;;;;;;;;;;;;9.33;87.28;99434.31;4075005;29;19938;-68
2023/11/14 04:42:53;;;;;;;;;;;;;;;9.33;87.07;99428.94;4074611;29;20046;-68
2023/11/14 04:44:56;;;;;;;;;;;;;;;9.32;87.26;99436.16;4058488;29;20440;-68
2023/11/14 04:46:58;;;;;;;;;;;;;;;9.36;87.05;99432.03;4074885;29;20026;-68
2023/11/14 04:49:00;;;;;;;;;;;;;;;9.35;87.29;99427.69;4065375;29;20057;-68
2023/11/14 04:51:02;;;;;;;;;;;;;;;9.35;87.27;99424.16;4065232;29;20018;-68
2023/11/14 04:53:06;;;;;;;;;;;;;;;9.36;86.90;99434.75;4075651;29;20027;-68
2023/11/14 04:55:08;;;;;;;;;;;;;;;9.37;86.79;99439.09;4074975;29;20469;-68
2023/11/14 04:57:10;;;;;;;;;;;;;;;9.38;86.91;99435.34;4075656;29;20022;-68
2023/11/14 04:59:11;;;;;;;;;;;;;;;9.39;86.95;99425.44;4075788;29;20053;-68
2023/11/14 05:01:15;;;;;;;;;;;;;;;9.43;86.97;99425.84;4073884;29;19941;-67
2023/11/14 05:03:17;;;;;;;;;;;;;;;9.44;86.65;99441.00;4056989;29;20018;-68
2023/11/14 05:05:19;;;;;;;;;;;;;;;9.44;86.64;99446.38;4073223;29;20025;-67
2023/11/14 05:07:21;;;;;;;;;;;;;;;9.44;87.05;99439.13;4074561;29;20017;-68
2023/11/14 05:09:25;;;;;;;;;;;;;;;9.45;86.55;99434.56;4074203;29;20025;-68
2023/11/14 05:11:27;;;;;;;;;;;;;;;9.47;86.48;99427.13;4072722;29;20014;-67
2023/11/14 05:13:29;;;;;;;;;;;;;;;9.46;86.76;99430.84;4074617;29;20038;-68
2023/11/14 05:15:31;;;;;;;;;;;;;;;9.47;86.85;99421.72;4073901;29;20025;-68
2023/11/14 05:17:33;;;;;;;;;;;;;;;9.49;86.38;99427.75;4074407;29;20022;-68
2023/11/14 05:19:35;;;;;;;;;;;;;;;9.49;86.40;99427.75;4073954;29;20366;-68
2023/11/14 05:21:37;;;;;;;;;;;;;;;9.49;86.29;99433.13;4074000;29;19931;-68
2023/11/14 05:23:46;;;;;;;;;;;;;;;9.51;86.25;99422.97;4048043;29;20030;-68
2023/11/14 05:25:52;;;;;;;;;;;;;;;9.51;86.36;99421.13;4062423;29;20333;-68
2023/11/14 05:27:54;;;;;;;;;;;;;;;9.52;86.07;99417.38;4074510;29;20944;-69
2023/11/14 05:29:56;;;;;;;;;;;;;;;9.54;86.30;99417.19;4074307;29;20033;-68
2023/11/14 05:31:58;;;;;;;;;;;;;;;9.54;86.31;99418.03;4073616;29;20033;-68
2023/11/14 05:34:00;;;;;;;;;;;;;;;9.55;86.02;99429.63;4072906;29;20022;-65
2023/11/14 05:36:02;;;;;;;;;;;;;;;9.56;85.82;99423.19;4074162;29;20013;-69
2023/11/14 05:38:04;;;;;;;;;;;;;;;9.56;86.19;99412.41;4074099;29;20025;-68
2023/11/14 05:40:09;;;;;;;;;;;;;;;9.56;85.71;99423.19;4074409;29;20033;-67
2023/11/14 05:42:13;;;;;;;;;;;;;;;9.57;85.92;99419.47;4073145;29;19946;-67
2023/11/14 05:44:15;;;;;;;;;;;;;;;9.58;85.74;99399.56;4072738;29;20041;-68
2023/11/14 05:46:17;;;;;;;;;;;;;;;9.60;85.90;99404.75;4075266;29;20022;-68
2023/11/14 05:48:20;;;;;;;;;;;;;;;9.60;85.57;99407.47;4074208;29;20037;-68
2023/11/14 05:50:22;;;;;;;;;;;;;;;9.63;85.41;99413.25;4074365;29;20469;-68
2023/11/14 05:52:24;;;;;;;;;;;;;;;9.62;85.68;99416.16;4074667;29;20030;-69
2023/11/14 05:54:26;;;;;;;;;;;;;;;9.63;85.38;99401.66;4073811;29;20049;-67
2023/11/14 05:56:28;;;;;;;;;;;;;;;9.64;85.34;99390.66;4073972;29;20364;-67
2023/11/14 05:58:31;;;;;;;;;;;;;;;9.64;85.32;99400.59;4073939;29;20029;-65
2023/11/14 06:00:32;;;;;;;;;;;;;;;9.64;85.51;99406.84;4072609;29;20022;-68
2023/11/14 06:02:34;;;;;;;;;;;;;;;9.66;85.30;99403.94;4072752;29;19938;-68
2023/11/14 06:04:37;;;;;;;;;;;;;;;9.67;85.24;99405.59;4074456;29;20042;-68
2023/11/14 06:06:39;;;;;;;;;;;;;;;9.68;85.08;99416.16;4074104;29;20366;-68
2023/11/14 06:08:41;;;;;;;;;;;;;;;9.69;84.91;99404.38;4073801;29;20029;-69
2023/11/14 06:10:43;;;;;;;;;;;;;;;9.69;85.00;99406.25;4073354;29;20030;-67
2023/11/14 06:12:45;;;;;;;;;;;;;;;9.70;84.98;99413.28;4076877;29;20449;-68
2023/11/14 06:14:48;;;;;;;;;;;;;;;9.70;84.94;99406.03;4075818;29;20018;-70
2023/11/14 06:16:50;;;;;;;;;;;;;;;9.69;84.84;99409.75;4077359;29;19931;-69
2023/11/14 06:18:52;;;;;;;;;;;;;;;9.71;85.04;99409.56;4076697;29;20837;-68
2023/11/14 06:20:54;;;;;;;;;;;;;;;9.71;84.88;99401.47;4074442;29;20410;-67
2023/11/14 06:22:55;;;;;;;;;;;;;;;9.72;84.87;99400.44;4076545;29;20029;-67
2023/11/14 06:24:57;;;;;;;;;;;;;;;9.73;84.59;99399.38;4077039;29;19927;-68
2023/11/14 06:26:59;;;;;;;;;;;;;;;9.73;84.62;99411.03;4076986;29;20410;-68
2023/11/14 06:29:00;;;;;;;;;;;;;;;9.76;84.55;99398.16;4076124;29;20096;-67
2023/11/14 06:31:04;;;;;;;;;;;;;;;9.76;84.65;99400.84;4076509;29;20069;-67
2023/11/14 06:33:05;;;;;;;;;;;;;;;9.76;84.36;99406.25;4075073;29;20383;-68
2023/11/14 06:35:07;;;;;;;;;;;;;;;9.77;84.66;99416.00;4076055;29;20450;-65
2023/11/14 06:37:11;;;;;;;;;;;;;;;9.77;84.53;99403.34;4076046;29;20233;-68
2023/11/14 06:39:13;;;;;;;;;;;;;;;9.77;84.16;99419.53;4058213;29;20017;-68
2023/11/14 06:41:16;;;;;;;;;;;;;;;9.79;84.20;99408.53;4075116;29;20022;-68
2023/11/14 06:43:18;;;;;;;;;;;;;;;9.78;84.16;99440.06;4059365;29;20479;-68
2023/11/14 06:45:20;;;;;;;;;;;;;;;9.78;84.04;99410.41;4076697;29;20017;-68
2023/11/14 06:47:23;;;;;;;;;;;;;;;9.79;83.95;99400.44;4076682;29;20030;-69
2023/11/14 06:49:25;;;;;;;;;;;;;;;9.80;84.16;99421.00;4050511;29;20067;-68
2023/11/14 06:51:27;;;;;;;;;;;;;;;9.81;84.02;99406.44;4075775;29;20029;-68
2023/11/14 06:53:29;;;;;;;;;;;;;;;9.80;84.00;99404.81;4075963;29;20030;-66
2023/11/14 06:55:31;;;;;;;;;;;;;;;9.79;84.04;99409.34;4066198;29;20053;-69
2023/11/14 06:57:32;;;;;;;;;;;;;;;9.81;83.98;99407.31;4076499;29;20737;-68
2023/11/14 06:59:34;;;;;;;;;;;;;;;9.82;83.75;99432.41;4076840;29;19934;-69
2023/11/14 07:01:36;;;;;;;;;;;;;;;9.82;83.69;99410.81;4075661;29;20026;-69
2023/11/14 07:03:40;;;;;;;;;;;;;;;9.81;83.89;99401.91;4075987;29;20018;-68
2023/11/14 07:05:42;;;;;;;;;;;;;;;9.82;83.97;99406.25;4075920;29;20021;-68
2023/11/14 07:07:45;;;;;;;;;;;;;;;9.83;83.59;99412.50;4076593;29;20469;-68
2023/11/14 07:09:47;;;;;;;;;;;;;;;9.83;83.60;99429.50;4076584;29;20025;-69
2023/11/14 07:11:48;;;;;;;;;;;;;;;9.85;83.63;99430.09;4076436;29;20017;-69
2023/11/14 07:13:52;;;;;;;;;;;;;;;9.85;83.71;99432.00;4076190;29;20021;-69
2023/11/14 07:15:56;;;;;;;;;;;;;;;9.86;83.42;99437.19;4076841;29;20022;-69
2023/11/14 07:17:58;;;;;;;;;;;;;;;9.87;83.29;99417.28;4076632;29;20402;-68
2023/11/14 07:20:05;;;;;;;;;;;;;;;9.87;83.38;99411.03;4065890;29;20129;-67
2023/11/14 07:22:08;;;;;;;;;;;;;;;9.87;83.24;99448.78;4077215;29;20013;-69
2023/11/14 07:24:10;;;;;;;;;;;;;;;9.89;83.42;99420.59;4074988;29;20422;-69
2023/11/14 07:26:13;;;;;;;;;;;;;;;9.88;83.54;99420.78;4075181;29;20054;-68
2023/11/14 07:28:15;;;;;;;;;;;;;;;9.89;83.37;99425.97;4075027;29;20357;-67
2023/11/14 07:30:17;;;;;;;;;;;;;;;9.91;83.21;99431.16;4074651;29;20670;-69
2023/11/14 07:32:20;;;;;;;;;;;;;;;9.90;83.20;99433.00;4076150;29;20006;-69
2023/11/14 07:34:22;;;;;;;;;;;;;;;9.90;83.41;99430.31;4075607;29;20034;-68
2023/11/14 07:36:26;;;;;;;;;;;;;;;9.93;83.17;99434.47;4075268;29;19966;-69
2023/11/14 07:38:29;;;;;;;;;;;;;;;9.91;83.23;99423.06;4075294;29;20014;-69
2023/11/14 07:40:32;;;;;;;;;;;;;;;9.92;83.24;99440.91;4074699;29;20018;-69
2023/11/14 07:42:34;;;;;;;;;;;;;;;9.92;83.00;99420.19;4074287;29;20009;-68
2023/11/14 07:44:38;;;;;;;;;;;;;;;9.94;83.32;99428.06;4075528;29;19992;-68
2023/11/14 07:46:42;;;;;;;;;;;;;;;9.95;82.98;99428.88;4075929;29;20021;-68
2023/11/14 07:48:43;;;;;;;;;;;;;;;9.96;83.19;99419.78;4075892;29;20038;-68
2023/11/14 07:50:47;;;;;;;;;;;;;;;9.96;83.48;99436.78;4074791;29;19927;-66
2023/11/14 07:52:51;;;;;;;;;;;;;;;9.98;83.29;99429.28;4075123;29;20021;-68
2023/11/14 07:54:55;;;;;;;;;;;;;;;10.00;83.35;99429.94;4074913;29;20029;-68
2023/11/14 07:56:58;;;;;;;;;;;;;;;10.01;83.47;99419.97;4074364;29;20026;-69
2023/11/14 07:59:00;;;;;;;;;;;;;;;10.03;83.22;99443.03;4074898;29;20034;-67
2023/11/14 08:01:03;;;;;;;;;;;;;;;10.04;83.08;99441.97;4075133;29;20371;-69
2023/11/14 08:03:06;;;;;;;;;;;;;;;10.05;83.09;99432.84;4075362;29;20104;-66
2023/11/14 08:05:08;;;;;;;;;;;;;;;10.06;83.36;99426.44;4075017;29;20456;-68
2023/11/14 08:07:10;;;;;;;;;;;;;;;10.07;83.22;99427.25;4064936;29;20022;-67
2023/11/14 08:09:14;;;;;;;;;;;;;;;10.09;83.36;99433.25;4075296;29;20029;-68
2023/11/14 08:11:16;;;;;;;;;;;;;;;10.11;83.15;99460.88;4064610;29;20039;-67
2023/11/14 08:13:18;;;;;;;;;;;;;;;10.12;83.36;99454.44;4074524;29;20033;-67
2023/11/14 08:15:20;;;;;;;;;;;;;;;10.15;83.22;99431.63;4075073;29;20041;-67
2023/11/14 08:17:22;;;;;;;;;;;;;;;10.16;83.15;99444.06;4075296;29;20017;-69
2023/11/14 08:19:24;;;;;;;;;;;;;;;10.17;82.93;99438.47;4074885;29;20013;-66
2023/11/14 08:21:25;;;;;;;;;;;;;;;10.18;82.76;99434.72;4074950;29;20081;-69
2023/11/14 08:23:28;;;;;;;;;;;;;;;10.20;82.85;99451.56;4074722;29;20018;-69
2023/11/14 08:25:31;;;;;;;;;;;;;;;10.22;82.84;99445.91;4074926;29;20432;-68
2023/11/14 08:27:33;;;;;;;;;;;;;;;10.22;82.63;99462.13;4074518;29;20017;-68
2023/11/14 08:29:36;;;;;;;;;;;;;;;10.23;82.45;99455.69;4074793;29;20022;-68
2023/11/14 08:31:37;;;;;;;;;;;;;;;10.25;82.82;99445.50;4073379;29;20018;-68
2023/11/14 08:33:39;;;;;;;;;;;;;;;10.25;82.70;99462.56;4071995;29;20033;-68
2023/11/14 08:35:41;;;;;;;;;;;;;;;10.27;82.71;99438.88;4073819;29;20054;-69
2023/11/14 08:37:43;;;;;;;;;;;;;;;10.27;82.36;99443.47;4074109;29;20149;-68
2023/11/14 08:39:45;;;;;;;;;;;;;;;10.27;82.60;99436.19;4073890;29;20366;-68
2023/11/14 08:41:49;;;;;;;;;;;;;;;10.27;82.44;99436.19;4073662;29;20025;-68
2023/11/14 08:43:51;;;;;;;;;;;;;;;10.29;82.60;99442.19;4074276;29;20034;-67
2023/11/14 08:45:54;;;;;;;;;;;;;;;10.30;82.53;99434.94;4074052;29;20030;-68
2023/11/14 08:47:56;;;;;;;;;;;;;;;10.31;82.46;99433.06;4073593;29;20034;-68
2023/11/14 08:49:58;;;;;;;;;;;;;;;10.33;82.31;99452.59;4074375;29;20023;-69
2023/11/14 08:52:00;;;;;;;;;;;;;;;10.33;82.38;99461.56;4074088;29;20026;-69
2023/11/14 08:54:02;;;;;;;;;;;;;;;10.34;82.23;99436.22;4056762;29;20019;-68
2023/11/14 08:56:04;;;;;;;;;;;;;;;10.34;82.41;99444.31;4074198;29;20384;-69
2023/11/14 08:58:07;;;;;;;;;;;;;;;10.36;82.27;99444.09;4074404;29;20022;-68
2023/11/14 09:00:10;;;;;;;;;;;;;;;10.37;82.39;99435.78;4073679;29;20124;-68
2023/11/14 09:02:12;;;;;;;;;;;;;;;10.39;82.55;99449.94;4073964;29;20029;-68
2023/11/14 09:04:14;;;;;;;;;;;;;;;10.39;82.63;99425.63;4074596;29;20425;-65
2023/11/14 09:06:16;;;;;;;;;;;;;;;10.44;82.58;99452.00;4074559;29;20470;-69
2023/11/14 09:08:18;;;;;;;;;;;;;;;10.45;82.28;99454.50;4074280;29;20030;-68
2023/11/14 09:10:20;;;;;;;;;;;;;;;10.49;82.49;99467.59;4073877;29;20022;-68
2023/11/14 09:12:22;;;;;;;;;;;;;;;10.51;82.23;99450.13;4074138;29;20384;-68
2023/11/14 09:14:26;;;;;;;;;;;;;;;10.55;82.04;99475.69;4074237;29;20022;-69
2023/11/14 09:16:28;;;;;;;;;;;;;;;10.57;82.06;99470.88;4074038;29;20038;-67
2023/11/14 09:18:30;;;;;;;;;;;;;;;10.59;81.96;99443.69;4073838;29;20376;-67
2023/11/14 09:20:33;;;;;;;;;;;;;;;10.60;81.88;99446.16;4074167;29;20013;-68
2023/11/14 09:22:38;;;;;;;;;;;;;;;10.62;82.04;99454.88;4073603;29;20026;-69
2023/11/14 09:24:39;;;;;;;;;;;;;;;10.65;81.87;99432.03;4074077;29;20021;-69
2023/11/14 09:26:42;;;;;;;;;;;;;;;10.68;81.72;99430.81;4073874;29;19927;-68
2023/11/14 09:28:44;;;;;;;;;;;;;;;10.69;81.70;99448.66;4074218;29;20014;-68
2023/11/14 09:30:47;;;;;;;;;;;;;;;10.70;81.48;99447.63;4074160;29;20021;-68
2023/11/14 09:32:49;;;;;;;;;;;;;;;10.72;81.34;99467.13;4073820;29;20432;-68
2023/11/14 09:34:51;;;;;;;;;;;;;;;10.73;81.67;99488.53;4074001;29;20013;-69
2023/11/14 09:36:53;;;;;;;;;;;;;;;10.74;81.64;99467.78;4074315;29;20025;-68
2023/11/14 09:38:55;;;;;;;;;;;;;;;10.76;81.49;99469.22;4073602;29;20026;-68
2023/11/14 09:40:59;;;;;;;;;;;;;;;10.77;81.50;99434.94;4074141;29;20006;-68
2023/11/14 09:43:01;;;;;;;;;;;;;;;10.79;81.42;99470.66;4073897;29;20453;-67
2023/11/14 09:45:04;;;;;;;;;;;;;;;10.81;81.23;99452.38;4073793;29;20025;-69
2023/11/14 09:47:08;;;;;;;;;;;;;;;10.84;81.21;99451.13;4076592;29;19931;-69
2023/11/14 09:49:10;;;;;;;;;;;;;;;10.86;81.32;99432.84;4077262;29;20010;-68
2023/11/14 09:51:13;;;;;;;;;;;;;;;10.86;80.91;99455.31;4077968;29;20034;-69
2023/11/14 09:53:15;;;;;;;;;;;;;;;10.88;81.04;99438.84;4060011;29;20019;-69
2023/11/14 09:55:18;;;;;;;;;;;;;;;10.89;81.21;99452.16;4077564;29;19956;-69
2023/11/14 09:57:19;;;;;;;;;;;;;;;10.91;81.17;99487.06;4077044;29;20360;-69
2023/11/14 09:59:21;;;;;;;;;;;;;;;10.91;80.93;99439.28;4060820;29;20468;-68
2023/11/14 10:01:23;;;;;;;;;;;;;;;10.92;80.60;99438.22;4077761;29;20022;-68
2023/11/14 10:03:27;;;;;;;;;;;;;;;10.93;80.66;99429.09;4078223;29;20370;-67
2023/11/14 10:05:29;;;;;;;;;;;;;;;10.95;80.50;99448.59;4078106;29;20026;-69
2023/11/14 10:07:31;;;;;;;;;;;;;;;10.98;80.81;99425.75;4077166;29;19938;-68
2023/11/14 10:09:33;;;;;;;;;;;;;;;10.99;80.81;99486.84;4077255;29;20025;-68
2023/11/14 10:11:41;;;;;;;;;;;;;;;10.99;80.41;99439.03;4076677;29;20021;-69
2023/11/14 10:13:44;;;;;;;;;;;;;;;11.02;80.22;99442.34;4076715;29;20029;-68
2023/11/14 10:15:46;;;;;;;;;;;;;;;11.05;80.41;99439.22;4076115;29;20026;-68
2023/11/14 10:17:47;;;;;;;;;;;;;;;11.04;79.99;99449.22;4077067;29;20013;-68
2023/11/14 10:20:00;;;;;;;;;;;;;;;11.05;80.30;99437.38;4076404;29;20038;-69
2023/11/14 10:22:03;;;;;;;;;;;;;;;11.05;80.25;99437.38;4076370;29;20420;-67
2023/11/14 10:24:11;;;;;;;;;;;;;;;11.07;80.23;99445.28;4076220;29;20034;-68
2023/11/14 10:26:13;;;;;;;;;;;;;;;11.07;79.97;99438.00;4076854;29;20014;-69
2023/11/14 10:28:14;;;;;;;;;;;;;;;11.07;80.17;99467.72;4077118;29;20013;-68
2023/11/14 10:30:16;;;;;;;;;;;;;;;11.08;80.17;99431.56;4076660;29;20017;-69
2023/11/14 10:32:21;;;;;;;;;;;;;;;11.10;80.26;99431.34;4076668;29;20394;-68
2023/11/14 10:34:24;;;;;;;;;;;;;;;11.11;80.35;99427.56;4076606;29;20014;-67
2023/11/14 10:36:26;;;;;;;;;;;;;;;11.11;80.17;99443.78;4077241;29;20018;-66
2023/11/14 10:38:28;;;;;;;;;;;;;;;11.12;80.13;99450.88;4076144;29;20457;-68
2023/11/14 10:40:42;;;;;;;;;;;;;;;11.12;79.95;99440.88;4075264;29;19975;-69
2023/11/14 10:42:51;;;;;;;;;;;;;;;11.15;80.06;99447.75;4076082;29;20022;-68
2023/11/14 10:44:59;;;;;;;;;;;;;;;11.15;80.09;99426.13;4076075;29;20014;-66